Time;durP1;ratioP1;P1;durP2;ratioP2;P2;SDS_P1;SDS_P2;PMS_P1;PMS_P2;Temp;Humidity;BMP_temperature;BMP_pressure;BME280_temperature;BME280_humidity;BME280_pressure;Samples;Min_cycle;Max_cycle;Signal;HPM_P1;HPM_P2
2023/07/26 00:02:25;;;;;;;5.35;1.98;;;;;;;15.01;67.75;101054.91;4951001;28;20073;-89
2023/07/26 00:04:50;;;;;;;1.88;1.50;;;;;;;15.00;67.60;101041.84;4945868;28;20027;-89
2023/07/26 00:07:15;;;;;;;2.88;1.85;;;;;;;14.99;68.09;101048.88;4951152;28;20134;-91
2023/07/26 00:09:40;;;;;;;3.00;1.60;;;;;;;14.97;68.46;101042.84;4950667;28;20134;-92
2023/07/26 00:12:06;;;;;;;3.03;1.63;;;;;;;14.97;68.12;101042.84;4952174;28;20047;-91
2023/07/26 00:14:31;;;;;;;2.63;1.70;;;;;;;14.96;68.14;101045.50;4949234;28;20080;-91
2023/07/26 00:16:57;;;;;;;2.55;1.60;;;;;;;14.97;67.85;101044.59;4952316;28;20026;-91
2023/07/26 00:19:24;;;;;;;2.50;1.58;;;;;;;14.96;68.27;101040.28;4948496;28;20031;-93
2023/07/26 00:21:50;;;;;;;3.90;1.80;;;;;;;14.96;68.65;101046.38;4939594;29;20036;-89
2023/07/26 00:24:15;;;;;;;2.45;1.70;;;;;;;14.96;68.85;101050.75;4940654;29;20496;-90
2023/07/26 00:26:41;;;;;;;2.60;1.70;;;;;;;14.95;68.57;101049.91;4937385;29;20039;-89
2023/07/26 00:29:06;;;;;;;4.10;1.80;;;;;;;14.94;68.51;101048.22;4943728;29;20028;-90
2023/07/26 00:31:31;;;;;;;1.60;1.50;;;;;;;14.93;68.74;101046.50;4938311;29;20039;-90
2023/07/26 00:33:56;;;;;;;1.95;1.65;;;;;;;14.91;69.25;101040.47;4946021;28;20023;-90
2023/07/26 00:36:22;;;;;;;2.60;1.63;;;;;;;14.89;69.11;101044.91;4949536;29;20027;-89
2023/07/26 00:38:47;;;;;;;2.40;1.73;;;;;;;14.87;68.95;101049.34;4952729;28;20031;-89
2023/07/26 00:41:12;;;;;;;2.97;1.83;;;;;;;14.85;69.46;101038.13;4947339;28;20059;-90
2023/07/26 00:43:39;;;;;;;2.70;1.63;;;;;;;14.82;69.46;101038.25;4941895;29;20428;-89
2023/07/26 00:46:05;;;;;;;2.40;1.75;;;;;;;14.79;69.31;101040.97;4941888;28;20031;-88
2023/07/26 00:48:33;;;;;;;2.45;1.75;;;;;;;14.76;69.27;101039.34;4946899;28;20066;-89
2023/07/26 00:51:00;;;;;;;2.28;1.65;;;;;;;14.72;69.84;101046.44;4948255;29;20035;-89
2023/07/26 00:53:26;;;;;;;2.33;1.70;;;;;;;14.70;69.87;101040.41;4936515;29;20020;-89
2023/07/26 00:55:53;;;;;;;3.95;1.73;;;;;;;14.69;69.50;101035.25;4953324;29;20075;-89
2023/07/26 00:58:19;;;;;;;3.35;1.70;;;;;;;14.66;70.02;101037.94;4948018;28;20024;-89
2023/07/26 01:00:45;;;;;;;3.03;1.63;;;;;;;14.67;71.04;101037.03;4937410;29;20027;-89
2023/07/26 01:03:10;;;;;;;3.53;1.90;;;;;;;14.60;71.32;101033.81;4939296;29;20110;-89
2023/07/26 01:06:01;;;;;;;2.90;2.10;;;;;;;14.51;71.12;101031.56;4955428;28;20038;-89
2023/07/26 01:08:45;;;;;;;2.10;1.83;;;;;;;14.41;70.06;101034.53;4956353;28;20106;-89
2023/07/26 01:11:20;;;;;;;3.88;1.80;;;;;;;14.33;71.51;101036.63;4941574;28;20056;-89
2023/07/26 01:13:55;;;;;;;3.78;2.03;;;;;;;14.26;71.52;101035.13;4936818;29;20138;-90
2023/07/26 01:16:21;;;;;;;3.00;1.88;;;;;;;14.21;72.32;101042.28;4938153;29;20055;-90
2023/07/26 01:18:46;;;;;;;3.47;2.03;;;;;;;14.16;73.27;101039.00;4945798;29;20068;-89
2023/07/26 01:21:11;;;;;;;2.42;1.90;;;;;;;14.09;73.08;101036.63;4937384;29;20062;-89
2023/07/26 01:23:38;;;;;;;2.60;1.80;;;;;;;14.05;73.72;101040.25;4943224;28;20028;-89
2023/07/26 01:26:04;;;;;;;4.03;2.22;;;;;;;13.99;73.71;101037.88;4939920;29;20086;-89
2023/07/26 01:28:30;;;;;;;3.30;1.90;;;;;;;13.95;74.05;101049.34;4944226;29;20364;-90
2023/07/26 01:30:58;;;;;;;3.35;2.10;;;;;;;13.91;74.30;101045.16;4937566;28;20498;-88
2023/07/26 01:33:25;;;;;;;3.35;2.00;;;;;;;13.87;75.15;101040.94;4948131;29;20027;-89
2023/07/26 01:35:51;;;;;;;3.22;2.20;;;;;;;13.84;74.83;101043.66;4951157;29;20162;-89
2023/07/26 01:38:18;;;;;;;2.65;2.00;;;;;;;13.83;76.37;101047.19;4949427;29;20463;-89
2023/07/26 01:40:45;;;;;;;2.63;2.10;;;;;;;13.83;76.17;101040.19;4936612;29;20047;-89
2023/07/26 01:43:10;;;;;;;2.33;1.92;;;;;;;13.83;76.89;101048.03;4945055;29;20038;-89
2023/07/26 01:45:36;;;;;;;4.15;2.20;;;;;;;13.84;76.45;101047.13;4941967;29;20402;-89
2023/07/26 01:48:01;;;;;;;2.53;2.03;;;;;;;13.88;76.04;101045.25;4944598;28;20023;-89
2023/07/26 01:50:26;;;;;;;3.58;1.98;;;;;;;13.87;76.36;101046.16;4947714;28;20038;-89
2023/07/26 01:52:52;;;;;;;3.50;2.25;;;;;;;13.87;75.99;101048.78;4939701;29;20031;-88
2023/07/26 01:55:17;;;;;;;3.85;2.00;;;;;;;13.84;76.72;101043.66;4943040;29;20031;-89
2023/07/26 01:57:42;;;;;;;2.63;2.13;;;;;;;13.83;76.51;101040.19;4944650;29;20027;-88
2023/07/26 02:00:08;;;;;;;3.03;2.05;;;;;;;13.81;76.26;101040.25;4953358;28;20035;-89
2023/07/26 02:02:33;;;;;;;3.10;2.20;;;;;;;13.82;76.55;101041.09;4945325;29;20055;-89
2023/07/26 02:04:59;;;;;;;4.57;2.70;;;;;;;13.81;76.98;101045.50;4952889;28;20034;-89
2023/07/26 02:07:24;;;;;;;3.97;2.45;;;;;;;13.81;77.41;101044.63;4944345;28;20082;-89
2023/07/26 02:09:49;;;;;;;4.25;2.83;;;;;;;13.80;78.53;101050.75;4942947;29;20027;-89
2023/07/26 02:12:15;;;;;;;3.45;2.70;;;;;;;13.78;77.31;101053.44;4936015;29;20567;-89
2023/07/26 02:14:40;;;;;;;3.72;2.53;;;;;;;13.79;76.78;101042.06;4938190;29;20494;-90
2023/07/26 02:17:06;;;;;;;3.58;2.40;;;;;;;13.86;77.38;101044.44;4940137;28;20054;-90
2023/07/26 02:19:31;;;;;;;4.03;2.50;;;;;;;13.88;78.22;101033.03;4938290;28;20070;-90
2023/07/26 02:21:56;;;;;;;4.55;2.80;;;;;;;13.89;77.22;101047.81;4938138;28;20039;-89
2023/07/26 02:24:21;;;;;;;3.67;2.50;;;;;;;13.88;75.82;101029.56;4939349;28;20127;-89
2023/07/26 02:26:47;;;;;;;3.55;2.47;;;;;;;13.90;75.38;101032.97;4937556;29;20031;-90
2023/07/26 02:29:12;;;;;;;5.63;2.47;;;;;;;13.90;75.83;101036.47;4938167;28;20383;-89
2023/07/26 02:31:37;;;;;;;3.53;2.50;;;;;;;13.91;75.78;101045.16;4935766;29;20035;-91
2023/07/26 02:34:03;;;;;;;3.28;2.45;;;;;;;13.92;75.77;101031.16;4933647;29;20043;-89
2023/07/26 02:36:28;;;;;;;3.00;2.55;;;;;;;13.90;76.12;101022.50;4939449;29;20035;-89
2023/07/26 02:38:53;;;;;;;4.13;2.40;;;;;;;13.88;76.00;101022.59;4942949;28;20455;-89
2023/07/26 02:41:18;;;;;;;3.45;2.72;;;;;;;13.86;76.42;101028.75;4949542;29;20066;-90
2023/07/26 02:43:44;;;;;;;3.63;2.72;;;;;;;13.85;76.74;101024.44;4945929;28;20086;-89
2023/07/26 02:46:09;;;;;;;3.17;2.60;;;;;;;13.80;76.71;101017.63;4942459;29;20031;-90
2023/07/26 02:48:35;;;;;;;5.43;2.75;;;;;;;13.78;76.26;101027.28;4935378;29;20063;-89
2023/07/26 02:51:00;;;;;;;5.30;3.08;;;;;;;13.76;76.55;101026.50;4937973;29;20020;-90
2023/07/26 02:53:25;;;;;;;4.22;2.67;;;;;;;13.73;76.46;101026.59;4936971;29;20075;-90
2023/07/26 02:55:51;;;;;;;3.83;2.60;;;;;;;13.71;76.46;101028.41;4934471;29;20039;-90
2023/07/26 02:58:16;;;;;;;3.92;2.55;;;;;;;13.70;76.39;101029.31;4937073;29;20427;-88
2023/07/26 03:00:41;;;;;;;5.80;2.78;;;;;;;13.69;76.63;101029.38;4942794;29;20036;-88
2023/07/26 03:03:07;;;;;;;3.42;2.75;;;;;;;13.65;76.78;101026.03;4952183;28;20035;-89
2023/07/26 03:05:33;;;;;;;4.47;2.70;;;;;;;13.60;76.86;101028.78;4935333;29;20470;-89
2023/07/26 03:07:58;;;;;;;3.67;2.80;;;;;;;13.58;77.57;101021.91;4935499;29;20043;-89
2023/07/26 03:10:23;;;;;;;4.10;2.88;;;;;;;13.55;77.57;101032.47;4935231;29;20115;-90
2023/07/26 03:12:49;;;;;;;4.72;3.00;;;;;;;13.55;77.70;101037.69;4935279;29;20038;-89
2023/07/26 03:15:14;;;;;;;3.50;2.67;;;;;;;13.55;77.28;101045.53;4935369;28;20475;-89
2023/07/26 03:17:39;;;;;;;4.70;2.80;;;;;;;13.53;76.87;101040.38;4937736;28;20039;-89
2023/07/26 03:20:05;;;;;;;4.32;3.03;;;;;;;13.57;77.19;101041.13;4935201;28;20019;-89
2023/07/26 03:22:31;;;;;;;5.82;3.00;;;;;;;13.56;76.97;101042.03;4935864;29;20396;-89
2023/07/26 03:24:56;;;;;;;5.47;3.00;;;;;;;13.58;77.06;101053.28;4944615;29;20023;-90
2023/07/26 03:27:22;;;;;;;5.05;2.80;;;;;;;13.59;76.78;101055.00;4942623;28;20031;-90
2023/07/26 03:29:47;;;;;;;4.53;2.70;;;;;;;13.59;76.45;101055.00;4942499;29;20131;-91
2023/07/26 03:32:12;;;;;;;7.05;2.53;;;;;;;13.58;76.66;101053.28;4942396;28;20099;-89
2023/07/26 03:34:38;;;;;;;4.25;2.88;;;;;;;13.57;76.95;101052.44;4934875;29;20103;-90
2023/07/26 03:37:03;;;;;;;4.80;2.70;;;;;;;13.56;76.86;101044.63;4937308;29;20039;-91
2023/07/26 03:39:28;;;;;;;3.55;2.50;;;;;;;13.53;77.01;101040.38;4938626;29;20060;-89
2023/07/26 03:41:54;;;;;;;4.10;2.60;;;;;;;13.54;77.02;101046.44;4943379;29;20471;-90
2023/07/26 03:44:19;;;;;;;3.63;2.55;;;;;;;13.53;77.46;101040.38;4943705;28;20099;-90
2023/07/26 03:46:45;;;;;;;4.05;2.75;;;;;;;13.53;77.37;101049.97;4934299;29;20423;-89
2023/07/26 03:49:10;;;;;;;4.63;2.70;;;;;;;13.51;77.32;101037.81;4946735;29;20426;-89
2023/07/26 03:51:35;;;;;;;4.60;2.65;;;;;;;13.50;78.36;101043.09;4939897;29;20035;-90
2023/07/26 03:54:01;;;;;;;4.15;2.80;;;;;;;13.48;77.94;101048.38;4938740;29;20078;-90
2023/07/26 03:56:26;;;;;;;5.38;2.72;;;;;;;13.47;78.12;101046.69;4944637;28;20030;-90
2023/07/26 03:58:51;;;;;;;4.40;2.42;;;;;;;13.45;77.96;101045.88;4943292;29;20097;-89
2023/07/26 04:01:17;;;;;;;3.83;2.70;;;;;;;13.44;77.97;101046.78;4952042;28;20035;-89
2023/07/26 04:03:43;;;;;;;3.97;2.63;;;;;;;13.43;78.09;101047.69;4938362;29;20480;-89
2023/07/26 04:06:12;;;;;;;4.10;2.45;;;;;;;13.40;77.88;101050.41;4946395;29;20046;-90
2023/07/26 04:08:38;;;;;;;4.40;2.50;;;;;;;13.39;78.35;101047.81;4949534;28;20032;-89
2023/07/26 04:11:04;;;;;;;3.78;2.50;;;;;;;13.35;78.37;101053.16;4941740;29;20044;-89
2023/07/26 04:13:29;;;;;;;3.67;2.50;;;;;;;13.34;78.58;101050.56;4938743;29;20040;-89
2023/07/26 04:15:54;;;;;;;3.72;2.40;;;;;;;13.33;78.94;101051.47;4938189;29;20035;-89
2023/07/26 04:18:20;;;;;;;3.38;2.30;;;;;;;13.30;78.89;101047.22;4941102;29;20372;-89
2023/07/26 04:20:45;;;;;;;3.92;2.40;;;;;;;13.29;78.83;101052.50;4941634;29;20114;-90
2023/07/26 04:23:10;;;;;;;3.55;2.40;;;;;;;13.28;78.89;101048.19;4937931;29;20038;-89
2023/07/26 04:25:35;;;;;;;4.30;2.75;;;;;;;13.27;79.15;101047.31;4941152;29;20036;-90
2023/07/26 04:28:01;;;;;;;3.40;2.55;;;;;;;13.27;79.15;101054.31;4947279;29;20031;-90
2023/07/26 04:30:26;;;;;;;4.95;2.75;;;;;;;13.24;79.36;101049.19;4937024;29;20034;-89
2023/07/26 04:32:52;;;;;;;3.65;2.33;;;;;;;13.25;79.18;101051.72;4951752;28;20035;-89
2023/07/26 04:35:17;;;;;;;3.35;2.50;;;;;;;13.24;79.65;101057.84;4951921;28;20038;-89
2023/07/26 04:37:42;;;;;;;3.30;2.47;;;;;;;13.23;79.17;101047.47;4941689;29;20039;-90
2023/07/26 04:40:08;;;;;;;3.13;2.28;;;;;;;13.23;79.58;101057.94;4942452;28;20054;-88
2023/07/26 04:42:34;;;;;;;2.85;2.35;;;;;;;13.20;79.82;101054.50;4944384;29;20023;-90
2023/07/26 04:45:00;;;;;;;3.85;2.40;;;;;;;13.20;80.22;101056.28;4941726;28;20032;-89
2023/07/26 04:47:25;;;;;;;3.55;2.38;;;;;;;13.18;79.36;101048.47;4946299;29;20051;-89
2023/07/26 04:49:50;;;;;;;3.85;2.60;;;;;;;13.18;79.59;101056.31;4946752;28;20031;-89
2023/07/26 04:52:16;;;;;;;3.40;2.38;;;;;;;13.18;79.92;101056.31;4943099;28;20416;-89
2023/07/26 04:54:41;;;;;;;3.03;2.20;;;;;;;13.20;79.46;101064.13;4946473;29;20133;-90
2023/07/26 04:57:06;;;;;;;3.42;2.58;;;;;;;13.18;79.50;101063.31;4946603;28;20035;-90
2023/07/26 04:59:31;;;;;;;3.88;2.20;;;;;;;13.17;79.32;101061.59;4944038;29;20035;-89
2023/07/26 05:01:57;;;;;;;3.50;2.22;;;;;;;13.18;79.79;101058.91;4937319;28;20035;-89
2023/07/26 05:04:22;;;;;;;3.20;2.45;;;;;;;13.20;79.19;101059.72;4945917;29;20027;-90
2023/07/26 05:06:47;;;;;;;4.88;2.53;;;;;;;13.24;78.94;101059.63;4942135;28;20158;-90
2023/07/26 05:09:13;;;;;;;3.20;2.10;;;;;;;13.26;79.48;101060.44;4943818;29;20360;-90
2023/07/26 05:11:38;;;;;;;3.95;2.15;;;;;;;13.28;79.51;101056.84;4942736;29;20476;-90
2023/07/26 05:14:03;;;;;;;2.70;2.17;;;;;;;13.31;79.83;101061.16;4940605;28;20039;-90
2023/07/26 05:16:29;;;;;;;2.78;2.25;;;;;;;13.30;80.01;101056.81;4938744;28;20035;-89
2023/07/26 05:18:57;;;;;;;4.22;2.42;;;;;;;13.26;79.98;101057.81;4947673;29;20035;-90
2023/07/26 05:21:23;;;;;;;4.75;2.50;;;;;;;13.25;80.09;101056.13;4947308;28;20467;-90
2023/07/26 05:23:48;;;;;;;4.68;2.60;;;;;;;13.26;80.46;101061.28;4940649;29;20043;-89
2023/07/26 05:26:13;;;;;;;3.58;2.67;;;;;;;13.27;80.66;101064.75;4940266;29;20031;-90
2023/07/26 05:28:39;;;;;;;4.60;2.47;;;;;;;13.31;80.58;101062.00;4937027;29;20079;-90
2023/07/26 05:31:04;;;;;;;3.33;2.28;;;;;;;13.35;80.66;101049.66;4938665;29;20127;-90
2023/07/26 05:33:30;;;;;;;3.47;2.70;;;;;;;13.38;81.12;101057.41;4940120;29;20028;-88
2023/07/26 05:35:55;;;;;;;4.22;2.92;;;;;;;13.42;80.63;101058.19;4958498;29;20031;-88
2023/07/26 05:38:20;;;;;;;5.50;2.75;;;;;;;13.45;80.94;101058.94;4950961;29;20471;-91
2023/07/26 05:40:46;;;;;;;4.07;2.70;;;;;;;13.49;81.11;101060.53;4952419;28;20039;-89
2023/07/26 05:43:11;;;;;;;4.30;2.90;;;;;;;13.52;81.35;101054.34;4950754;28;20066;-90
2023/07/26 05:45:40;;;;;;;4.00;3.03;;;;;;;13.56;81.96;101055.97;4936459;29;20048;-90
2023/07/26 05:48:05;;;;;;;4.65;3.30;;;;;;;13.60;81.62;101052.31;4944617;29;20019;-90
2023/07/26 05:50:31;;;;;;;4.85;3.13;;;;;;;13.66;81.66;101046.03;4946871;28;20035;-91
2023/07/26 05:52:56;;;;;;;4.78;2.78;;;;;;;13.70;82.18;101045.00;4946170;28;20031;-91
2023/07/26 05:55:21;;;;;;;5.18;3.55;;;;;;;13.76;82.16;101057.00;4938359;29;20038;-91
2023/07/26 05:57:47;;;;;;;5.65;3.22;;;;;;;13.83;82.16;101052.44;4937442;29;20075;-90
2023/07/26 06:00:13;;;;;;;5.07;3.50;;;;;;;13.91;82.37;101059.09;4943292;29;20090;-90
2023/07/26 06:02:39;;;;;;;5.32;3.38;;;;;;;14.02;81.28;101060.44;4947560;29;20098;-90
2023/07/26 06:05:05;;;;;;;4.97;3.17;;;;;;;14.13;82.03;101060.06;4938134;28;20060;-90
2023/07/26 06:07:30;;;;;;;6.88;3.45;;;;;;;14.20;81.53;101059.78;4939774;29;20043;-92
2023/07/26 06:09:56;;;;;;;5.05;3.28;;;;;;;14.26;80.99;101063.91;4936195;28;20039;-90
2023/07/26 06:12:21;;;;;;;4.72;3.30;;;;;;;14.30;80.99;101068.13;4943233;29;20187;-90
2023/07/26 06:14:46;;;;;;;8.23;3.63;;;;;;;14.36;80.86;101067.88;4942857;28;20037;-90
2023/07/26 06:17:12;;;;;;;5.88;3.40;;;;;;;14.41;80.70;101070.34;4942014;29;20039;-90
2023/07/26 06:19:37;;;;;;;7.22;3.63;;;;;;;14.47;80.69;101083.19;4945088;28;20032;-90
2023/07/26 06:22:03;;;;;;;7.38;4.30;;;;;;;14.53;81.00;101085.56;4950075;29;20031;-91
2023/07/26 06:24:28;;;;;;;6.90;3.47;;;;;;;14.61;80.96;101085.28;4937361;29;20034;-91
2023/07/26 06:26:53;;;;;;;7.97;3.88;;;;;;;14.67;80.85;101095.53;4939693;29;20121;-90
2023/07/26 06:29:19;;;;;;;6.00;3.33;;;;;;;14.74;80.84;101097.91;4947868;28;20027;-90
2023/07/26 06:31:44;;;;;;;6.55;4.20;;;;;;;14.80;81.17;101097.69;4943515;29;20435;-90
2023/07/26 06:34:09;;;;;;;5.47;3.80;;;;;;;14.83;81.31;101097.56;4936620;28;20027;-90
2023/07/26 06:36:35;;;;;;;6.20;3.78;;;;;;;14.85;81.20;101100.97;4938032;29;20362;-90
2023/07/26 06:39:00;;;;;;;7.40;4.25;;;;;;;14.89;80.58;101113.03;4943130;29;20036;-91
2023/07/26 06:41:25;;;;;;;7.93;4.40;;;;;;;14.90;80.58;101114.72;4944060;29;20090;-91
2023/07/26 06:43:51;;;;;;;7.30;4.18;;;;;;;14.91;80.18;101113.81;4939597;28;20070;-91
2023/07/26 06:46:16;;;;;;;7.05;4.22;;;;;;;14.92;80.09;101115.53;4943962;29;20027;-90
2023/07/26 06:48:41;;;;;;;7.70;4.53;;;;;;;14.91;80.34;101121.69;4944187;28;20027;-92
2023/07/26 06:51:06;;;;;;;7.20;4.38;;;;;;;14.91;80.33;101124.28;4934874;29;20036;-89
2023/07/26 06:53:32;;;;;;;8.02;4.18;;;;;;;14.90;80.59;101130.44;4935201;29;20038;-90
2023/07/26 06:55:58;;;;;;;7.80;4.78;;;;;;;14.89;81.13;101128.75;4944819;28;20036;-90
2023/07/26 06:58:24;;;;;;;7.72;4.53;;;;;;;14.87;81.90;101122.69;4935298;29;20119;-91
2023/07/26 07:00:49;;;;;;;7.40;4.35;;;;;;;14.84;81.54;101125.47;4935708;29;20066;-91
2023/07/26 07:03:15;;;;;;;8.43;4.72;;;;;;;14.82;82.40;101132.53;4952262;29;20031;-89
2023/07/26 07:05:40;;;;;;;8.77;4.68;;;;;;;14.80;82.39;101127.31;4954638;28;20059;-90
2023/07/26 07:08:05;;;;;;;7.43;4.65;;;;;;;14.78;82.89;101133.56;4941138;28;20031;-91
2023/07/26 07:10:30;;;;;;;8.20;4.47;;;;;;;14.78;83.36;101136.16;4951832;28;20119;-91
2023/07/26 07:12:56;;;;;;;8.07;4.70;;;;;;;14.78;83.81;101136.16;4947087;29;20040;-90
2023/07/26 07:15:21;;;;;;;8.02;4.72;;;;;;;14.78;84.60;101142.25;4947412;28;20032;-90
2023/07/26 07:17:46;;;;;;;8.35;4.93;;;;;;;14.80;84.76;101144.81;4938783;29;20424;-89
2023/07/26 07:20:11;;;;;;;9.65;5.00;;;;;;;14.81;85.13;101146.53;4943495;29;20035;-89
2023/07/26 07:22:37;;;;;;;6.97;4.68;;;;;;;14.82;85.17;101156.09;4936450;28;20388;-89
2023/07/26 07:25:03;;;;;;;8.23;5.07;;;;;;;14.82;85.33;101166.59;4941121;29;20039;-86
2023/07/26 07:27:28;;;;;;;8.98;5.07;;;;;;;14.81;84.60;101170.09;4934274;28;20035;-91
2023/07/26 07:29:54;;;;;;;7.15;4.88;;;;;;;14.78;85.30;101165.81;4942562;28;20057;-91
2023/07/26 07:32:20;;;;;;;8.25;5.15;;;;;;;14.77;85.29;101176.38;4945465;28;20042;-91
2023/07/26 07:34:45;;;;;;;8.80;5.43;;;;;;;14.76;85.76;101169.41;4948302;28;20027;-88
2023/07/26 07:37:11;;;;;;;9.63;5.15;;;;;;;14.75;86.23;101172.94;4948165;28;20422;-89
2023/07/26 07:39:36;;;;;;;10.13;5.05;;;;;;;14.75;86.60;101167.72;4952581;28;20054;-90
2023/07/26 07:42:02;;;;;;;7.15;4.78;;;;;;;14.74;85.70;101155.53;4951236;28;20039;-94
2023/07/26 07:44:30;;;;;;;8.25;4.78;;;;;;;14.76;86.41;101138.00;4951003;28;20127;-91
2023/07/26 07:46:57;;;;;;;6.97;4.72;;;;;;;14.77;85.98;101150.19;4952713;28;20030;-91
2023/07/26 07:49:23;;;;;;;8.00;5.25;;;;;;;14.82;86.13;101164.78;4952373;28;20039;-91
2023/07/26 07:51:48;;;;;;;9.30;4.82;;;;;;;14.89;86.73;101165.41;4946922;28;20142;-92
2023/07/26 07:54:13;;;;;;;7.93;5.28;;;;;;;14.93;86.54;101161.75;4953342;28;20118;-92
2023/07/26 07:56:39;;;;;;;8.38;5.20;;;;;;;14.98;86.15;101165.06;4953420;28;20039;-93
2023/07/26 07:59:04;;;;;;;6.88;4.82;;;;;;;15.02;86.65;101165.78;4950881;28;20034;-93
2023/07/26 08:01:30;;;;;;;10.25;5.32;;;;;;;15.07;87.37;101165.59;4951122;28;20023;-92
2023/07/26 08:03:56;;;;;;;9.23;5.50;;;;;;;15.10;86.88;101163.75;4944719;28;20035;-91
2023/07/26 08:06:21;;;;;;;8.85;5.07;;;;;;;15.15;87.05;101166.16;4953053;28;20550;-93
2023/07/26 08:08:46;;;;;;;7.07;5.53;;;;;;;15.12;84.68;101161.88;4948773;28;20019;-92
2023/07/26 08:11:12;;;;;;;10.23;5.32;;;;;;;15.11;86.57;101156.72;4951805;28;20533;-92
2023/07/26 08:13:37;;;;;;;8.73;4.97;;;;;;;15.10;84.48;101153.25;4950132;28;20045;-92
2023/07/26 08:16:03;;;;;;;9.32;5.50;;;;;;;15.11;85.40;101154.09;4947787;28;20110;-91
2023/07/26 08:18:28;;;;;;;7.30;5.53;;;;;;;15.17;86.88;101159.09;4943964;28;20027;-91
2023/07/26 08:20:53;;;;;;;7.72;5.78;;;;;;;15.20;85.84;101160.75;4946871;28;20027;-92
2023/07/26 08:23:19;;;;;;;8.52;6.15;;;;;;;15.22;85.93;101167.63;4951085;28;20030;-89
2023/07/26 08:25:44;;;;;;;8.07;5.97;;;;;;;15.24;86.08;101173.66;4945251;28;20075;-90
2023/07/26 08:28:09;;;;;;;9.55;5.93;;;;;;;15.26;87.05;101169.19;4944572;28;20134;-91
2023/07/26 08:30:35;;;;;;;10.65;6.28;;;;;;;15.30;87.41;101165.56;4942099;28;20385;-91
2023/07/26 08:33:00;;;;;;;10.00;6.03;;;;;;;15.33;86.97;101159.31;4944602;28;20030;-91
2023/07/26 08:35:26;;;;;;;8.05;5.50;;;;;;;15.38;87.20;101159.13;4946763;28;20093;-94
2023/07/26 08:37:51;;;;;;;7.72;5.65;;;;;;;15.39;84.93;101153.84;4945271;28;20143;-89
2023/07/26 08:40:17;;;;;;;8.23;5.65;;;;;;;15.45;86.27;101157.97;4944606;28;20031;-90
2023/07/26 08:42:43;;;;;;;10.15;5.35;;;;;;;15.48;86.28;101160.47;4942052;28;20560;-90
2023/07/26 08:45:10;;;;;;;7.97;5.45;;;;;;;15.53;86.02;101155.91;4939732;28;20118;-92
2023/07/26 08:47:35;;;;;;;9.23;5.63;;;;;;;15.57;85.68;101160.06;4942372;28;20023;-92
2023/07/26 08:50:02;;;;;;;10.00;5.47;;;;;;;15.61;86.34;101161.66;4947154;28;20364;-94
2023/07/26 08:52:28;;;;;;;8.93;5.93;;;;;;;15.65;86.49;101153.66;4946269;28;20035;-92
2023/07/26 08:54:55;;;;;;;8.93;5.70;;;;;;;15.71;85.20;101150.81;4945831;28;20085;-92
2023/07/26 08:57:20;;;;;;;8.82;5.82;;;;;;;15.78;84.58;101154.84;4944527;28;20047;-94
2023/07/26 08:59:45;;;;;;;11.00;5.45;;;;;;;15.87;83.42;101154.50;4944205;28;20023;-91
2023/07/26 09:02:14;;;;;;;8.50;5.13;;;;;;;16.00;83.23;101153.97;4943679;28;20039;-92
2023/07/26 09:04:40;;;;;;;9.20;5.38;;;;;;;16.13;83.18;101149.88;4943138;28;20035;-90
2023/07/26 09:07:06;;;;;;;7.65;5.22;;;;;;;16.23;82.57;101151.16;4943261;28;20428;-89
2023/07/26 09:09:33;;;;;;;9.45;5.32;;;;;;;16.28;81.70;101147.47;4943720;28;20398;-89
2023/07/26 09:11:59;;;;;;;8.25;5.43;;;;;;;16.33;81.64;101142.88;4947115;28;20411;-87
2023/07/26 09:14:27;;;;;;;7.80;5.78;;;;;;;16.42;83.44;101145.09;4945137;28;20541;-90
2023/07/26 09:16:58;;;;;;;8.10;5.30;;;;;;;16.51;81.84;101149.94;4945104;28;21942;-90
2023/07/26 09:19:32;;;;;;;7.20;5.10;;;;;;;16.60;81.79;101142.53;4942937;28;21347;-90
2023/07/26 09:22:02;;;;;;;8.25;4.88;;;;;;;16.66;78.30;101142.25;4942667;28;20585;-89
2023/07/26 09:24:40;;;;;;;6.60;4.88;;;;;;;16.79;79.03;101139.91;4946970;28;20082;-90
2023/07/26 09:27:11;;;;;;;6.95;4.53;;;;;;;16.93;75.07;101137.47;4945889;28;20030;-91
2023/07/26 09:29:39;;;;;;;6.40;4.65;;;;;;;17.08;75.99;101133.28;4942532;28;20364;-92
2023/07/26 09:32:05;;;;;;;7.32;4.40;;;;;;;17.23;75.85;101120.34;4947322;28;20031;-93
2023/07/26 09:34:31;;;;;;;5.50;3.70;;;;;;;17.29;71.36;101133.16;4941840;28;20463;-91
2023/07/26 09:36:58;;;;;;;5.82;3.70;;;;;;;17.28;71.39;101129.69;4943265;28;20031;-91
2023/07/26 09:39:25;;;;;;;7.22;4.15;;;;;;;17.26;70.68;101120.16;4942601;28;20031;-93
2023/07/26 09:42:05;;;;;;;5.68;3.83;;;;;;;17.26;71.96;101126.28;4943390;28;20034;-94
2023/07/26 09:44:31;;;;;;;6.55;4.15;;;;;;;17.29;72.49;101127.91;4940628;28;20201;-90
2023/07/26 09:46:57;;;;;;;5.38;3.75;;;;;;;17.34;71.41;101120.63;4943602;28;20466;-92
2023/07/26 09:49:27;;;;;;;4.53;3.47;;;;;;;17.44;68.86;101126.28;4942917;28;20517;-91
2023/07/26 09:51:57;;;;;;;5.03;3.17;;;;;;;17.47;69.20;101130.53;4942243;28;20039;-91
2023/07/26 09:54:30;;;;;;;5.18;3.70;;;;;;;17.41;67.30;101134.34;4943185;28;20047;-92
2023/07/26 09:56:57;;;;;;;4.97;3.28;;;;;;;17.40;68.37;101135.25;4944162;28;20051;-95
2023/07/26 09:59:27;;;;;;;5.63;3.70;;;;;;;17.36;67.89;101139.81;4942691;28;20066;-91
2023/07/26 10:01:54;;;;;;;5.85;3.53;;;;;;;17.32;68.82;101146.16;4942046;28;20056;-93
2023/07/26 10:04:32;;;;;;;7.00;4.07;;;;;;;17.25;70.58;101150.03;4949317;28;20046;-90
2023/07/26 10:07:00;;;;;;;7.13;3.88;;;;;;;17.16;70.80;101153.09;4948299;28;20553;-92
2023/07/26 10:09:27;;;;;;;5.57;3.28;;;;;;;17.05;68.99;101149.22;4947063;28;20023;-89
2023/07/26 10:11:57;;;;;;;5.90;3.05;;;;;;;16.94;70.28;101146.19;4951094;28;20142;-93
2023/07/26 10:14:24;;;;;;;5.80;3.08;;;;;;;16.93;71.24;101133.97;4949041;28;20028;-92
2023/07/26 10:16:51;;;;;;;4.85;3.08;;;;;;;16.93;70.76;101129.59;4947169;28;20018;-92
2023/07/26 10:19:18;;;;;;;7.93;3.65;;;;;;;16.97;72.37;101125.06;4948187;28;20019;-91
2023/07/26 10:21:46;;;;;;;7.00;3.55;;;;;;;17.01;73.72;101131.88;4951345;28;20074;-92
2023/07/26 10:24:15;;;;;;;5.35;3.47;;;;;;;17.07;75.15;101134.22;4949771;28;20038;-93
2023/07/26 10:26:42;;;;;;;7.97;3.85;;;;;;;17.20;76.76;101133.63;4946738;28;20027;-94
2023/07/26 10:29:08;;;;;;;8.25;3.85;;;;;;;17.32;76.66;101135.63;4950475;28;20027;-93
2023/07/26 10:31:34;;;;;;;5.93;3.28;;;;;;;17.41;71.87;101143.09;4943922;28;20036;-89
2023/07/26 10:33:59;;;;;;;7.15;3.65;;;;;;;17.45;68.41;101135.88;4946565;28;20140;-91
2023/07/26 10:36:32;;;;;;;5.68;2.92;;;;;;;17.44;69.98;101132.38;4949109;28;20038;-89
2023/07/26 10:39:09;;;;;;;5.97;2.63;;;;;;;17.40;68.48;101132.63;4946853;28;20969;-92
2023/07/26 10:41:35;;;;;;;4.97;2.70;;;;;;;17.36;66.30;101146.84;4942370;28;20031;-90
2023/07/26 10:44:02;;;;;;;3.70;2.10;;;;;;;17.28;67.92;101150.72;4943491;28;20046;-91
2023/07/26 10:46:28;;;;;;;3.40;1.92;;;;;;;17.13;67.73;101141.78;4943343;28;20034;-91
2023/07/26 10:48:53;;;;;;;3.50;2.15;;;;;;;17.02;70.07;101141.47;4942926;28;20050;-92
2023/07/26 10:51:31;;;;;;;3.45;2.25;;;;;;;16.95;70.61;101143.56;4944808;28;20043;-93
2023/07/26 10:53:58;;;;;;;4.78;2.10;;;;;;;16.96;69.31;101144.38;4938879;28;20415;-93
2023/07/26 10:56:32;;;;;;;4.72;2.28;;;;;;;16.99;71.54;101144.25;4944772;28;20090;-93
2023/07/26 10:59:17;;;;;;;4.43;2.30;;;;;;;17.03;71.03;101134.44;4945382;28;20031;-96
2023/07/26 11:01:46;;;;;;;4.25;2.28;;;;;;;17.08;69.03;101138.53;4942691;28;20143;-91
2023/07/26 11:04:13;;;;;;;4.00;2.28;;;;;;;17.11;69.97;101127.88;4942559;28;20035;-90
2023/07/26 11:06:48;;;;;;;4.20;2.50;;;;;;;17.16;70.50;101129.44;4947601;28;20035;-91
2023/07/26 11:09:27;;;;;;;6.07;2.70;;;;;;;17.24;70.78;101137.81;4946345;28;20391;-91
2023/07/26 11:11:57;;;;;;;4.43;2.67;;;;;;;17.32;69.54;101119.88;4943537;28;20089;-93
2023/07/26 11:14:25;;;;;;;4.63;2.58;;;;;;;17.45;69.38;101135.88;4945808;28;20570;-93
2023/07/26 11:16:51;;;;;;;4.90;2.90;;;;;;;17.53;68.54;101132.88;4943776;28;20495;-91
2023/07/26 11:19:17;;;;;;;4.93;2.90;;;;;;;17.59;69.28;101132.56;4943827;28;20058;-92
2023/07/26 11:21:43;;;;;;;5.93;3.10;;;;;;;17.69;69.17;101127.66;4948248;28;20055;-93